createdAt,value
2019-03-28T00:01:07.826Z,69.82
2019-03-28T00:03:40.210Z,69.87
2019-03-28T00:06:12.621Z,69.79
2019-03-28T00:08:45.265Z,70.08
2019-03-28T00:11:17.665Z,70.14
2019-03-28T00:13:50.020Z,70.24
2019-03-28T00:16:23.198Z,70.45
2019-03-28T00:18:57.539Z,70.25
2019-03-28T00:21:30.059Z,70.38
2019-03-28T00:24:21.318Z,70.80
2019-03-28T00:26:53.791Z,70.61
2019-03-28T00:29:26.462Z,70.50
2019-03-28T00:31:58.923Z,70.52
2019-03-28T00:34:31.275Z,70.57
2019-03-28T00:37:03.648Z,70.52
2019-03-28T00:39:36.295Z,70.84
2019-03-28T00:42:08.664Z,70.79
2019-03-28T00:44:41.383Z,71.20
2019-03-28T00:47:13.766Z,71.29
2019-03-28T00:49:46.406Z,71.11
2019-03-28T00:52:18.802Z,71.24
2019-03-28T00:54:51.311Z,71.09
2019-03-28T00:57:23.735Z,70.25
2019-03-28T00:59:56.109Z,70.65
2019-03-28T01:02:28.489Z,70.85
2019-03-28T01:05:00.880Z,70.86
2019-03-28T01:07:33.349Z,71.16
2019-03-28T01:10:06.289Z,71.33
2019-03-28T01:12:38.954Z,71.37
2019-03-28T01:15:11.374Z,71.34
2019-03-28T01:17:44.086Z,71.17
2019-03-28T01:20:16.398Z,71.22
2019-03-28T01:22:48.997Z,71.35
2019-03-28T01:25:21.314Z,71.28
2019-03-28T01:27:53.628Z,71.16
2019-03-28T01:30:26.229Z,71.36
2019-03-28T01:32:58.845Z,71.91
2019-03-28T01:35:31.455Z,72.15
2019-03-28T01:38:04.039Z,72.42
2019-03-28T01:40:36.634Z,72.56
2019-03-28T01:43:09.282Z,72.48
2019-03-28T01:45:41.854Z,72.57
2019-03-28T01:48:14.480Z,72.36
2019-03-28T01:50:47.186Z,72.17
2019-03-28T01:53:19.863Z,72.04
2019-03-28T01:55:52.214Z,72.30
2019-03-28T01:58:24.822Z,72.50
2019-03-28T02:00:57.221Z,72.52
2019-03-28T02:03:29.871Z,72.61
2019-03-28T02:06:02.469Z,72.62
2019-03-28T02:08:35.092Z,72.61
2019-03-28T02:11:07.842Z,72.63
2019-03-28T02:13:40.602Z,72.62
2019-03-28T02:16:12.963Z,72.79
2019-03-28T02:18:45.363Z,72.71
2019-03-28T02:21:18.005Z,72.99
2019-03-28T02:23:50.408Z,72.51
2019-03-28T02:26:23.075Z,72.93
2019-03-28T02:28:55.446Z,72.82
2019-03-28T02:31:28.116Z,73.04
2019-03-28T02:34:00.515Z,72.51
2019-03-28T02:36:33.225Z,72.94
2019-03-28T02:39:07.838Z,73.10
2019-03-28T02:41:41.428Z,72.68
2019-03-28T02:44:14.068Z,72.70
2019-03-28T02:46:46.724Z,72.98
2019-03-28T02:49:20.206Z,73.14
2019-03-28T02:51:52.547Z,73.58
2019-03-28T02:54:25.181Z,73.25
2019-03-28T02:56:57.571Z,73.37
2019-03-28T02:59:31.289Z,73.29
2019-03-28T03:02:03.945Z,73.22
2019-03-28T03:04:36.407Z,72.85
2019-03-28T03:07:08.795Z,72.70
2019-03-28T03:09:41.173Z,72.85
2019-03-28T03:12:13.536Z,73.37
2019-03-28T03:14:45.990Z,73.31
2019-03-28T03:17:18.667Z,73.38
2019-03-28T03:19:51.491Z,73.39
2019-03-28T03:22:24.304Z,73.19
2019-03-28T03:24:56.929Z,73.27
2019-03-28T03:27:29.321Z,73.06
2019-03-28T03:30:03.612Z,73.01
2019-03-28T03:32:35.785Z,72.81
2019-03-28T03:35:08.886Z,72.90
2019-03-28T03:37:41.533Z,72.55
2019-03-28T03:40:15.738Z,72.83
2019-03-28T03:42:48.401Z,72.87
2019-03-28T03:45:21.034Z,73.02
2019-03-28T03:47:53.701Z,73.12
2019-03-28T03:50:30.761Z,73.17
2019-03-28T03:53:03.521Z,73.03
2019-03-28T03:55:36.179Z,73.27
2019-03-28T03:58:16.045Z,73.11
2019-03-28T04:00:43.710Z,73.29
2019-03-28T04:03:16.156Z,73.18
2019-03-28T04:05:48.564Z,73.34
2019-03-28T04:08:20.952Z,73.31
2019-03-28T04:10:53.491Z,73.40
2019-03-28T04:13:26.000Z,73.28
2019-03-28T04:15:58.391Z,73.27
2019-03-28T04:18:30.782Z,73.27
2019-03-28T04:21:03.165Z,73.20
2019-03-28T04:23:35.533Z,73.24
2019-03-28T04:26:08.202Z,73.29
2019-03-28T04:28:40.596Z,73.50
2019-03-28T04:31:13.279Z,73.50
2019-03-28T04:33:45.901Z,73.19
2019-03-28T04:36:18.540Z,73.16
2019-03-28T04:38:51.168Z,73.32
2019-03-28T04:41:23.840Z,73.41
2019-03-28T04:43:56.493Z,73.37
2019-03-28T04:46:30.327Z,73.13
2019-03-28T04:49:02.955Z,73.21
2019-03-28T04:51:35.615Z,72.99
2019-03-28T04:54:09.806Z,73.57
2019-03-28T04:56:42.679Z,73.30
2019-03-28T04:59:15.460Z,73.15
2019-03-28T05:02:01.019Z,73.13
2019-03-28T05:04:22.721Z,73.10
2019-03-28T05:06:55.459Z,73.23
2019-03-28T05:09:28.100Z,73.56
2019-03-28T05:12:00.741Z,73.34
2019-03-28T05:14:33.410Z,73.58
2019-03-28T05:17:06.076Z,73.65
2019-03-28T05:19:38.714Z,73.52
2019-03-28T05:22:11.109Z,73.69
2019-03-28T05:24:43.471Z,72.90
2019-03-28T05:27:16.730Z,73.05
2019-03-28T05:29:49.446Z,73.60
2019-03-28T05:32:22.130Z,73.60
2019-03-28T05:34:54.511Z,73.37
2019-03-28T05:37:26.895Z,73.02
2019-03-28T05:39:59.556Z,73.32
2019-03-28T05:42:32.275Z,73.18
2019-03-28T05:45:05.039Z,72.60
2019-03-28T05:47:37.729Z,72.84
2019-03-28T05:50:10.590Z,73.14
2019-03-28T05:52:43.253Z,72.90
2019-03-28T05:55:15.871Z,72.45
2019-03-28T05:57:48.534Z,72.53
2019-03-28T06:00:21.198Z,72.07
2019-03-28T06:02:54.852Z,71.57
2019-03-28T06:05:27.263Z,71.04
2019-03-28T06:07:59.665Z,70.20
2019-03-28T06:10:32.026Z,69.66
2019-03-28T06:13:04.425Z,69.21
2019-03-28T06:15:36.842Z,68.42
2019-03-28T06:18:09.235Z,66.73
2019-03-28T06:20:41.904Z,66.36
2019-03-28T06:23:14.354Z,66.51
2019-03-28T06:25:46.733Z,65.79
2019-03-28T06:28:19.137Z,64.98
2019-03-28T06:30:51.541Z,65.38
2019-03-28T06:33:23.951Z,64.75
2019-03-28T06:35:56.337Z,63.76
2019-03-28T06:38:28.852Z,62.83
2019-03-28T06:41:01.214Z,63.41
2019-03-28T06:43:33.856Z,63.30
2019-03-28T06:46:06.218Z,62.18
2019-03-28T06:48:38.637Z,62.04
2019-03-28T06:51:11.014Z,62.08
2019-03-28T06:53:43.411Z,61.07
2019-03-28T06:56:15.801Z,60.53
2019-03-28T06:58:48.151Z,61.50
2019-03-28T07:01:20.577Z,59.86
2019-03-28T07:03:53.014Z,60.33
2019-03-28T07:06:25.412Z,59.75
2019-03-28T07:08:57.829Z,58.80
2019-03-28T07:11:30.318Z,59.19
2019-03-28T07:14:02.698Z,59.89
2019-03-28T07:16:35.109Z,58.87
2019-03-28T07:19:07.521Z,59.96
2019-03-28T07:21:39.900Z,58.09
2019-03-28T07:24:12.280Z,57.94
2019-03-28T07:26:44.676Z,58.12
2019-03-28T07:29:18.145Z,56.85
2019-03-28T07:31:50.557Z,55.64
2019-03-28T07:34:22.933Z,56.05
2019-03-28T07:36:55.335Z,56.14
2019-03-28T07:39:27.728Z,55.79
2019-03-28T07:42:00.157Z,55.72
2019-03-28T07:44:32.548Z,55.74
2019-03-28T07:47:04.952Z,55.50
2019-03-28T07:49:37.810Z,55.08
2019-03-28T07:52:10.211Z,54.74
2019-03-28T07:54:42.607Z,55.76
2019-03-28T07:57:16.068Z,54.17
2019-03-28T07:59:48.474Z,55.15
2019-03-28T08:02:20.867Z,54.20
2019-03-28T08:04:53.289Z,54.13
2019-03-28T08:07:25.658Z,54.65
2019-03-28T08:09:58.074Z,52.33
2019-03-28T08:12:30.713Z,51.45
2019-03-28T08:15:03.350Z,52.22
2019-03-28T08:17:35.775Z,53.41
2019-03-28T08:20:10.726Z,52.05
2019-03-28T08:22:43.116Z,51.10
2019-03-28T08:25:17.025Z,51.89
2019-03-28T08:27:49.531Z,52.32
2019-03-28T08:30:34.912Z,51.13
2019-03-28T08:33:08.160Z,50.75
2019-03-28T08:35:40.905Z,51.35
2019-03-28T08:38:13.436Z,48.97
2019-03-28T08:40:46.460Z,49.36
2019-03-28T08:43:18.883Z,51.49
2019-03-28T08:45:51.483Z,49.25
2019-03-28T08:48:25.856Z,48.80
2019-03-28T08:50:58.350Z,47.27
2019-03-28T08:53:30.819Z,46.80
2019-03-28T08:56:03.333Z,46.88
2019-03-28T08:58:38.185Z,45.23
2019-03-28T09:01:09.976Z,44.26
2019-03-28T09:03:42.577Z,44.76
2019-03-28T09:06:17.075Z,45.59
2019-03-28T09:08:49.170Z,45.10
2019-03-28T09:11:21.731Z,45.56
2019-03-28T09:13:54.144Z,45.08
2019-03-28T09:16:27.564Z,44.16
2019-03-28T09:18:59.998Z,43.25
2019-03-28T09:21:33.461Z,43.35
2019-03-28T09:24:05.933Z,43.96
2019-03-28T09:26:38.304Z,43.99
2019-03-28T09:29:10.837Z,43.89
2019-03-28T09:31:43.439Z,43.71
2019-03-28T09:34:15.839Z,43.36
2019-03-28T09:36:48.200Z,44.29
2019-03-28T09:39:20.576Z,43.59
2019-03-28T09:41:52.975Z,44.14
2019-03-28T09:44:25.364Z,43.67
2019-03-28T09:46:57.766Z,43.59
2019-03-28T09:49:30.281Z,44.41
2019-03-28T09:52:02.664Z,43.49
2019-03-28T09:54:35.078Z,43.63
2019-03-28T09:57:07.517Z,43.73
2019-03-28T09:59:39.905Z,43.67
2019-03-28T10:02:12.286Z,43.67
2019-03-28T10:04:44.782Z,44.05
2019-03-28T10:07:17.172Z,43.54
2019-03-28T10:09:49.570Z,44.33
2019-03-28T10:12:23.027Z,43.30
2019-03-28T10:14:55.683Z,43.69
2019-03-28T10:17:28.079Z,44.66
2019-03-28T10:20:00.464Z,44.37
2019-03-28T10:22:32.855Z,43.63
2019-03-28T10:25:07.243Z,43.61
2019-03-28T10:27:39.783Z,43.62
2019-03-28T10:30:13.386Z,44.34
2019-03-28T10:32:46.019Z,44.35
2019-03-28T10:35:31.038Z,43.99
2019-03-28T10:38:03.473Z,44.97
2019-03-28T10:40:36.469Z,43.94
2019-03-28T10:43:09.979Z,44.18
2019-03-28T10:45:42.352Z,43.68
2019-03-28T10:48:14.765Z,42.96
2019-03-28T10:50:47.160Z,43.20
2019-03-28T10:53:19.852Z,43.87
2019-03-28T10:55:52.270Z,43.76
2019-03-28T10:58:24.747Z,43.76
2019-03-28T11:00:57.618Z,43.50
2019-03-28T11:03:30.324Z,44.05
2019-03-28T11:06:02.988Z,44.16
2019-03-28T11:08:36.673Z,43.94
2019-03-28T11:11:09.240Z,43.43
2019-03-28T11:13:41.634Z,44.53
2019-03-28T11:16:15.236Z,44.24
2019-03-28T11:18:47.930Z,43.95
2019-03-28T11:21:20.594Z,43.96
2019-03-28T11:23:52.991Z,45.00
2019-03-28T11:26:25.529Z,45.80
2019-03-28T11:29:00.839Z,45.84
2019-03-28T11:31:45.765Z,45.88
2019-03-28T11:34:07.259Z,46.16
2019-03-28T11:36:39.671Z,46.88
2019-03-28T11:39:30.893Z,46.54
2019-03-28T11:42:03.294Z,46.46
2019-03-28T11:44:35.906Z,45.51
2019-03-28T11:47:08.317Z,45.33
2019-03-28T11:49:40.844Z,45.27
2019-03-28T11:52:13.214Z,44.32
2019-03-28T11:54:45.925Z,46.14
2019-03-28T11:57:18.306Z,44.76
2019-03-28T11:59:50.980Z,44.75
2019-03-28T12:02:25.293Z,44.59
2019-03-28T12:04:57.865Z,44.51
2019-03-28T12:07:30.289Z,44.63
2019-03-28T12:10:02.715Z,45.10
2019-03-28T12:12:35.115Z,44.59
2019-03-28T12:15:08.555Z,45.30
2019-03-28T12:17:40.954Z,46.00
2019-03-28T12:20:14.868Z,45.30
2019-03-28T12:22:47.259Z,44.88
2019-03-28T12:25:19.650Z,46.09
2019-03-28T12:27:52.018Z,45.87
2019-03-28T12:30:25.150Z,46.72
2019-03-28T12:32:57.543Z,47.66
2019-03-28T12:35:29.966Z,47.33
2019-03-28T12:38:02.716Z,48.25
2019-03-28T12:40:35.614Z,48.36
2019-03-28T12:43:08.000Z,49.10
2019-03-28T12:45:40.421Z,49.59
2019-03-28T12:48:12.805Z,50.08
2019-03-28T12:50:58.062Z,49.76
2019-03-28T12:53:19.268Z,50.30
2019-03-28T12:55:51.692Z,50.15
2019-03-28T12:58:24.120Z,50.38
2019-03-28T13:00:56.826Z,49.67
2019-03-28T13:03:34.785Z,49.42
2019-03-28T13:06:03.401Z,47.96
2019-03-28T13:08:35.843Z,48.57
2019-03-28T13:11:08.369Z,48.81
2019-03-28T13:13:40.753Z,47.61
2019-03-28T13:16:14.139Z,47.95
2019-03-28T13:18:46.538Z,47.84
2019-03-28T13:21:18.997Z,48.77
2019-03-28T13:23:51.668Z,48.81
2019-03-28T13:26:24.085Z,48.60
2019-03-28T13:28:56.492Z,49.44
2019-03-28T13:31:28.900Z,49.34
2019-03-28T13:34:01.460Z,49.97
2019-03-28T13:36:34.156Z,48.85
2019-03-28T13:39:08.608Z,48.44
2019-03-28T13:41:44.180Z,49.04
2019-03-28T13:44:15.125Z,48.76
2019-03-28T13:46:58.789Z,48.28
2019-03-28T13:49:31.195Z,47.35
2019-03-28T13:52:04.575Z,48.14
2019-03-28T13:54:36.975Z,47.94
2019-03-28T13:57:09.367Z,48.07
2019-03-28T13:59:41.768Z,48.87
2019-03-28T14:02:14.206Z,49.55
2019-03-28T14:04:46.589Z,49.83
2019-03-28T14:07:19.026Z,50.75
2019-03-28T14:09:51.494Z,50.84
2019-03-28T14:12:23.922Z,51.01
2019-03-28T14:14:56.341Z,51.19
2019-03-28T14:17:28.848Z,51.35
2019-03-28T14:20:01.228Z,51.21
2019-03-28T14:22:33.764Z,50.98
2019-03-28T14:25:06.223Z,50.49
2019-03-28T14:27:38.574Z,50.59
2019-03-28T14:30:12.234Z,50.77
2019-03-28T14:32:53.185Z,50.94
2019-03-28T14:35:18.756Z,50.28
2019-03-28T14:37:51.187Z,50.58
2019-03-28T14:40:23.600Z,50.90
2019-03-28T14:42:56.035Z,50.38
2019-03-28T14:45:28.554Z,50.96
2019-03-28T14:48:01.033Z,51.12
2019-03-28T14:50:39.121Z,51.33
2019-03-28T14:53:11.540Z,51.57
2019-03-28T14:55:44.119Z,51.67
2019-03-28T14:58:16.523Z,51.24
2019-03-28T15:00:53.508Z,51.13
2019-03-28T15:03:27.208Z,51.34
2019-03-28T15:06:00.183Z,51.44
2019-03-28T15:08:32.727Z,51.15
2019-03-28T15:11:06.205Z,51.45
2019-03-28T15:13:40.466Z,51.00
2019-03-28T15:16:12.746Z,51.05
2019-03-28T15:18:45.324Z,50.92
2019-03-28T15:21:17.842Z,51.04
2019-03-28T15:23:50.351Z,51.35
2019-03-28T15:26:23.846Z,51.44
2019-03-28T15:28:56.244Z,51.89
2019-03-28T15:31:28.715Z,52.05
2019-03-28T15:34:01.220Z,52.14
2019-03-28T15:36:33.681Z,51.82
2019-03-28T15:39:17.917Z,52.47
2019-03-28T15:41:50.388Z,52.55
2019-03-28T15:44:22.861Z,52.94
2019-03-28T15:46:55.282Z,52.81
2019-03-28T15:49:27.896Z,52.84
2019-03-28T15:52:03.069Z,52.84
2019-03-28T15:54:34.588Z,52.50
2019-03-28T15:57:07.149Z,52.79
2019-03-28T15:59:39.544Z,53.06
2019-03-28T16:02:11.944Z,53.10
2019-03-28T16:04:44.353Z,53.25
2019-03-28T16:07:16.784Z,53.43
2019-03-28T16:09:49.307Z,53.60
2019-03-28T16:12:21.756Z,54.08
2019-03-28T16:14:54.146Z,54.23
2019-03-28T16:17:26.672Z,54.16
2019-03-28T16:20:00.897Z,54.33
2019-03-28T16:22:33.375Z,54.24
2019-03-28T16:25:05.882Z,54.48
2019-03-28T16:27:39.377Z,54.50
2019-03-28T16:30:13.687Z,54.65
2019-03-28T16:32:46.201Z,54.77
2019-03-28T16:35:21.177Z,55.25
2019-03-28T16:37:53.759Z,55.22
2019-03-28T16:40:26.440Z,55.63
2019-03-28T16:42:58.895Z,55.78
2019-03-28T16:45:31.342Z,55.75
2019-03-28T16:48:04.854Z,56.16
2019-03-28T16:50:37.257Z,56.50
2019-03-28T16:53:09.933Z,56.47
2019-03-28T16:55:42.677Z,56.41
2019-03-28T16:58:15.090Z,56.33
2019-03-28T17:00:47.543Z,56.78
2019-03-28T17:03:19.939Z,56.68
2019-03-28T17:05:52.431Z,56.81
2019-03-28T17:08:25.450Z,56.83
2019-03-28T17:10:58.010Z,57.24
2019-03-28T17:13:30.493Z,57.60
2019-03-28T17:16:02.907Z,57.37
2019-03-28T17:18:35.394Z,57.23
2019-03-28T17:21:07.824Z,57.40
2019-03-28T17:23:40.274Z,57.64
2019-03-28T17:26:12.669Z,57.65
2019-03-28T17:28:45.256Z,57.88
2019-03-28T17:31:18.873Z,58.11
2019-03-28T17:33:51.459Z,58.22
2019-03-28T17:36:26.733Z,58.44
2019-03-28T17:38:58.013Z,58.57
2019-03-28T17:41:31.716Z,58.69
2019-03-28T17:44:04.537Z,58.78
2019-03-28T17:46:36.995Z,58.94
2019-03-28T17:49:09.547Z,58.90
2019-03-28T17:51:42.040Z,59.15
2019-03-28T17:54:14.433Z,58.90
2019-03-28T17:56:47.678Z,58.81
2019-03-28T17:59:20.531Z,59.09
2019-03-28T18:01:52.933Z,59.02
2019-03-28T18:04:25.465Z,59.22
2019-03-28T18:06:57.918Z,59.29
2019-03-28T18:09:30.372Z,59.32
2019-03-28T18:12:02.773Z,59.40
2019-03-28T18:14:35.195Z,59.58
2019-03-28T18:17:07.597Z,59.61
2019-03-28T18:19:40.022Z,59.91
2019-03-28T18:22:12.479Z,59.67
2019-03-28T18:24:44.977Z,59.57
2019-03-28T18:27:17.647Z,59.86
2019-03-28T18:29:51.123Z,59.64
2019-03-28T18:32:23.539Z,59.42
2019-03-28T18:35:05.074Z,59.39
2019-03-28T18:37:30.196Z,59.73
2019-03-28T18:40:04.482Z,59.81
2019-03-28T18:42:36.678Z,60.07
2019-03-28T18:45:12.743Z,60.18
2019-03-28T18:47:47.063Z,60.46
2019-03-28T18:50:19.984Z,60.52
2019-03-28T18:52:52.371Z,60.90
2019-03-28T18:55:24.861Z,60.89
2019-03-28T18:57:57.308Z,61.07
2019-03-28T19:00:30.855Z,61.07
2019-03-28T19:03:03.278Z,61.28
2019-03-28T19:05:35.656Z,61.09
2019-03-28T19:08:08.091Z,61.29
2019-03-28T19:10:40.520Z,61.27
2019-03-28T19:13:13.849Z,61.07
2019-03-28T19:15:46.476Z,61.14
2019-03-28T19:18:18.864Z,61.26
2019-03-28T19:20:51.445Z,61.26
2019-03-28T19:23:24.754Z,61.41
2019-03-28T19:25:57.465Z,61.25
2019-03-28T19:28:29.809Z,61.37
2019-03-28T19:31:02.363Z,61.05
2019-03-28T19:33:38.015Z,61.22
2019-03-28T19:36:09.122Z,61.29
2019-03-28T19:38:43.229Z,61.25
2019-03-28T19:41:15.694Z,61.35
2019-03-28T19:43:48.181Z,61.41
2019-03-28T19:46:20.677Z,61.41
2019-03-28T19:48:53.121Z,61.51
2019-03-28T19:51:28.242Z,61.45
2019-03-28T19:53:59.730Z,61.66
2019-03-28T19:56:32.215Z,61.71
2019-03-28T19:59:04.696Z,61.56
2019-03-28T20:01:37.155Z,61.91
2019-03-28T20:04:09.535Z,61.97
2019-03-28T20:06:42.067Z,62.07
2019-03-28T20:09:16.535Z,62.25
2019-03-28T20:11:48.609Z,62.56
2019-03-28T20:14:21.012Z,62.66
2019-03-28T20:16:53.612Z,63.16
2019-03-28T20:19:26.039Z,63.22
2019-03-28T20:21:59.723Z,63.49
2019-03-28T20:24:32.299Z,63.66
2019-03-28T20:27:04.783Z,63.83
2019-03-28T20:29:39.988Z,64.02
2019-03-28T20:32:11.948Z,64.29
2019-03-28T20:34:48.927Z,64.34
2019-03-28T20:37:20.340Z,64.52
2019-03-28T20:39:52.803Z,64.61
2019-03-28T20:42:25.343Z,64.61
2019-03-28T20:44:57.780Z,64.68
2019-03-28T20:47:30.231Z,64.87
2019-03-28T20:50:02.657Z,64.94
2019-03-28T20:52:36.190Z,64.99
2019-03-28T20:55:08.931Z,64.93
2019-03-28T20:57:41.534Z,64.97
2019-03-28T21:00:16.435Z,64.90
2019-03-28T21:02:49.037Z,64.91
2019-03-28T21:05:21.694Z,65.01
2019-03-28T21:07:54.160Z,65.03
2019-03-28T21:10:27.390Z,65.15
2019-03-28T21:12:59.784Z,65.12
2019-03-28T21:15:32.278Z,65.02
2019-03-28T21:18:04.762Z,65.04
2019-03-28T21:20:37.181Z,65.03
2019-03-28T21:23:09.609Z,65.11
2019-03-28T21:25:42.073Z,64.94
2019-03-28T21:28:14.515Z,65.03
2019-03-28T21:30:47.949Z,65.21
2019-03-28T21:33:21.064Z,65.49
2019-03-28T21:35:53.515Z,65.46
2019-03-28T21:38:25.977Z,65.77
2019-03-28T21:40:59.685Z,65.82
2019-03-28T21:43:32.490Z,65.77
2019-03-28T21:46:04.931Z,66.01
2019-03-28T21:48:37.501Z,66.24
2019-03-28T21:51:11.588Z,66.29
2019-03-28T21:53:44.278Z,66.65
2019-03-28T21:56:16.887Z,66.98
2019-03-28T21:58:49.532Z,67.22
2019-03-28T22:01:21.970Z,67.28
2019-03-28T22:03:54.415Z,67.81
2019-03-28T22:06:26.874Z,67.62
2019-03-28T22:08:59.302Z,68.39
2019-03-28T22:11:31.857Z,67.92
2019-03-28T22:14:04.316Z,68.19
2019-03-28T22:16:36.729Z,68.33
2019-03-28T22:19:10.289Z,68.59
2019-03-28T22:21:42.688Z,68.46
2019-03-28T22:24:15.265Z,68.91
2019-03-28T22:26:47.703Z,68.74
2019-03-28T22:29:20.848Z,69.24
2019-03-28T22:31:53.522Z,69.48
2019-03-28T22:34:26.012Z,69.64
2019-03-28T22:37:00.006Z,69.66
2019-03-28T22:39:32.753Z,69.98
2019-03-28T22:42:05.276Z,70.12
2019-03-28T22:44:37.727Z,69.89
2019-03-28T22:47:10.130Z,70.19
2019-03-28T22:49:42.605Z,70.18
2019-03-28T22:52:15.021Z,70.36
2019-03-28T22:54:47.414Z,70.08
2019-03-28T22:57:19.840Z,70.38
2019-03-28T22:59:52.927Z,70.61
2019-03-28T23:02:25.535Z,70.80
2019-03-28T23:04:57.943Z,71.01
2019-03-28T23:07:30.424Z,71.06
2019-03-28T23:10:02.866Z,70.87
2019-03-28T23:12:35.423Z,70.78
2019-03-28T23:15:09.039Z,72.06
2019-03-28T23:17:41.434Z,72.85
2019-03-28T23:20:14.144Z,73.24
2019-03-28T23:22:46.609Z,73.33
2019-03-28T23:25:19.083Z,74.36
2019-03-28T23:27:52.724Z,74.24
2019-03-28T23:30:25.240Z,74.32
2019-03-28T23:32:57.815Z,73.97
2019-03-28T23:35:30.286Z,74.37
2019-03-28T23:38:02.683Z,74.36
2019-03-28T23:40:35.114Z,74.32
2019-03-28T23:43:07.517Z,74.70
2019-03-28T23:45:39.967Z,74.41
2019-03-28T23:48:12.652Z,74.39
2019-03-28T23:50:45.182Z,74.64
2019-03-28T23:53:17.615Z,74.61
2019-03-28T23:55:50.022Z,74.28
2019-03-28T23:58:22.543Z,74.43
